sensor_id;sensor_type;location;lat;lon;timestamp;temperature;humidity
11599;DHT22;5855;48.840;9.188;2023-12-04T00:00:46;-4.80;99.90
11599;DHT22;5855;48.840;9.188;2023-12-04T00:03:15;-4.80;99.90
11599;DHT22;5855;48.840;9.188;2023-12-04T00:05:42;-4.80;99.90
11599;DHT22;5855;48.840;9.188;2023-12-04T00:08:10;-4.80;99.90
11599;DHT22;5855;48.840;9.188;2023-12-04T00:10:38;-4.90;99.90
11599;DHT22;5855;48.840;9.188;2023-12-04T00:13:05;-4.80;99.90
11599;DHT22;5855;48.840;9.188;2023-12-04T00:15:31;-4.90;99.90
11599;DHT22;5855;48.840;9.188;2023-12-04T00:17:58;-4.90;99.90
11599;DHT22;5855;48.840;9.188;2023-12-04T00:20:26;-4.90;99.90
11599;DHT22;5855;48.840;9.188;2023-12-04T00:22:53;-4.90;99.90
11599;DHT22;5855;48.840;9.188;2023-12-04T00:25:21;-4.90;99.90
11599;DHT22;5855;48.840;9.188;2023-12-04T00:27:48;-5.00;99.90
11599;DHT22;5855;48.840;9.188;2023-12-04T00:30:15;-5.00;99.90
11599;DHT22;5855;48.840;9.188;2023-12-04T00:32:42;-5.00;99.90
11599;DHT22;5855;48.840;9.188;2023-12-04T00:35:08;-5.00;99.90
11599;DHT22;5855;48.840;9.188;2023-12-04T00:37:37;-5.00;99.90
11599;DHT22;5855;48.840;9.188;2023-12-04T00:40:05;-4.90;99.90
11599;DHT22;5855;48.840;9.188;2023-12-04T00:42:32;-4.90;99.90
11599;DHT22;5855;48.840;9.188;2023-12-04T00:44:59;-4.90;99.90
11599;DHT22;5855;48.840;9.188;2023-12-04T00:47:26;-4.90;99.90
11599;DHT22;5855;48.840;9.188;2023-12-04T00:49:53;-4.90;99.90
11599;DHT22;5855;48.840;9.188;2023-12-04T00:52:19;-4.90;99.90
11599;DHT22;5855;48.840;9.188;2023-12-04T00:54:48;-4.90;99.90
11599;DHT22;5855;48.840;9.188;2023-12-04T00:57:14;-4.90;99.90
11599;DHT22;5855;48.840;9.188;2023-12-04T00:59:41;-4.90;99.90
11599;DHT22;5855;48.840;9.188;2023-12-04T01:02:08;-4.80;99.90
11599;DHT22;5855;48.840;9.188;2023-12-04T01:04:35;-4.80;99.90
11599;DHT22;5855;48.840;9.188;2023-12-04T01:07:02;-4.80;99.90
11599;DHT22;5855;48.840;9.188;2023-12-04T01:09:28;-4.80;99.90
11599;DHT22;5855;48.840;9.188;2023-12-04T01:11:57;-4.80;99.90
11599;DHT22;5855;48.840;9.188;2023-12-04T01:14:23;-4.80;99.90
11599;DHT22;5855;48.840;9.188;2023-12-04T01:16:50;-4.80;99.90
11599;DHT22;5855;48.840;9.188;2023-12-04T01:19:17;-4.80;99.90
11599;DHT22;5855;48.840;9.188;2023-12-04T01:21:44;-4.70;99.90
11599;DHT22;5855;48.840;9.188;2023-12-04T01:24:11;-4.70;99.90
11599;DHT22;5855;48.840;9.188;2023-12-04T01:26:38;-4.70;99.90
11599;DHT22;5855;48.840;9.188;2023-12-04T01:29:07;-4.80;99.90
11599;DHT22;5855;48.840;9.188;2023-12-04T01:31:34;-4.80;99.90
11599;DHT22;5855;48.840;9.188;2023-12-04T01:34:00;-4.70;99.90
11599;DHT22;5855;48.840;9.188;2023-12-04T01:36:27;-4.70;99.90
11599;DHT22;5855;48.840;9.188;2023-12-04T01:38:54;-4.70;99.90
11599;DHT22;5855;48.840;9.188;2023-12-04T01:41:21;-4.70;99.90
11599;DHT22;5855;48.840;9.188;2023-12-04T01:43:48;-4.70;99.90
11599;DHT22;5855;48.840;9.188;2023-12-04T01:46:17;-4.70;99.90
11599;DHT22;5855;48.840;9.188;2023-12-04T01:48:45;-4.70;99.90
11599;DHT22;5855;48.840;9.188;2023-12-04T01:51:12;-4.60;99.90
11599;DHT22;5855;48.840;9.188;2023-12-04T01:53:40;-4.60;99.90
11599;DHT22;5855;48.840;9.188;2023-12-04T01:56:09;-4.60;99.90
11599;DHT22;5855;48.840;9.188;2023-12-04T01:58:36;-4.60;99.90
11599;DHT22;5855;48.840;9.188;2023-12-04T02:01:04;-4.60;99.90
11599;DHT22;5855;48.840;9.188;2023-12-04T02:03:33;-4.60;99.90
11599;DHT22;5855;48.840;9.188;2023-12-04T02:05:59;-4.60;99.90
11599;DHT22;5855;48.840;9.188;2023-12-04T02:08:28;-4.60;99.90
11599;DHT22;5855;48.840;9.188;2023-12-04T02:10:55;-4.60;99.90
11599;DHT22;5855;48.840;9.188;2023-12-04T02:13:22;-4.60;99.90
11599;DHT22;5855;48.840;9.188;2023-12-04T02:15:53;-4.50;99.90
11599;DHT22;5855;48.840;9.188;2023-12-04T02:18:20;-4.50;99.90
11599;DHT22;5855;48.840;9.188;2023-12-04T02:20:49;-4.50;99.90
11599;DHT22;5855;48.840;9.188;2023-12-04T02:23:15;-4.50;99.90
11599;DHT22;5855;48.840;9.188;2023-12-04T02:25:44;-4.60;99.90
11599;DHT22;5855;48.840;9.188;2023-12-04T02:28:14;-4.60;99.90
11599;DHT22;5855;48.840;9.188;2023-12-04T02:30:43;-4.60;99.90
11599;DHT22;5855;48.840;9.188;2023-12-04T02:33:12;-4.70;99.90
11599;DHT22;5855;48.840;9.188;2023-12-04T02:35:40;-4.70;99.90
11599;DHT22;5855;48.840;9.188;2023-12-04T02:38:08;-4.70;99.90
11599;DHT22;5855;48.840;9.188;2023-12-04T02:40:35;-4.70;99.90
11599;DHT22;5855;48.840;9.188;2023-12-04T02:43:04;-4.70;99.90
11599;DHT22;5855;48.840;9.188;2023-12-04T02:45:30;-4.70;99.90
11599;DHT22;5855;48.840;9.188;2023-12-04T02:47:59;-4.50;99.90
11599;DHT22;5855;48.840;9.188;2023-12-04T02:50:26;-4.50;99.90
11599;DHT22;5855;48.840;9.188;2023-12-04T02:52:52;-4.40;99.90
11599;DHT22;5855;48.840;9.188;2023-12-04T02:55:19;-4.50;99.90
11599;DHT22;5855;48.840;9.188;2023-12-04T02:57:46;-4.40;99.90
11599;DHT22;5855;48.840;9.188;2023-12-04T03:00:15;-4.50;99.90
11599;DHT22;5855;48.840;9.188;2023-12-04T03:02:41;-4.50;99.90
11599;DHT22;5855;48.840;9.188;2023-12-04T03:05:08;-4.60;99.90
11599;DHT22;5855;48.840;9.188;2023-12-04T03:07:36;-4.60;99.90
11599;DHT22;5855;48.840;9.188;2023-12-04T03:10:03;-4.70;99.90
11599;DHT22;5855;48.840;9.188;2023-12-04T03:12:30;-4.70;99.90
11599;DHT22;5855;48.840;9.188;2023-12-04T03:14:57;-4.60;99.90
11599;DHT22;5855;48.840;9.188;2023-12-04T03:17:25;-4.70;99.90
11599;DHT22;5855;48.840;9.188;2023-12-04T03:19:52;-4.60;99.90
11599;DHT22;5855;48.840;9.188;2023-12-04T03:22:18;-4.60;99.90
11599;DHT22;5855;48.840;9.188;2023-12-04T03:24:45;-4.60;99.90
11599;DHT22;5855;48.840;9.188;2023-12-04T03:27:12;-4.60;99.90
11599;DHT22;5855;48.840;9.188;2023-12-04T03:29:39;-4.60;99.90
11599;DHT22;5855;48.840;9.188;2023-12-04T03:32:06;-4.60;99.90
11599;DHT22;5855;48.840;9.188;2023-12-04T03:34:34;-4.60;99.90
11599;DHT22;5855;48.840;9.188;2023-12-04T03:37:01;-4.60;99.90
11599;DHT22;5855;48.840;9.188;2023-12-04T03:39:28;-4.50;99.90
11599;DHT22;5855;48.840;9.188;2023-12-04T03:41:54;-4.50;99.90
11599;DHT22;5855;48.840;9.188;2023-12-04T03:44:22;-4.50;99.90
11599;DHT22;5855;48.840;9.188;2023-12-04T03:46:49;-4.50;99.90
11599;DHT22;5855;48.840;9.188;2023-12-04T03:49:17;-4.50;99.90
11599;DHT22;5855;48.840;9.188;2023-12-04T03:51:45;-4.50;99.90
11599;DHT22;5855;48.840;9.188;2023-12-04T03:54:12;-4.50;99.90
11599;DHT22;5855;48.840;9.188;2023-12-04T03:56:39;-4.60;99.90
11599;DHT22;5855;48.840;9.188;2023-12-04T03:59:08;-4.60;99.90
11599;DHT22;5855;48.840;9.188;2023-12-04T04:01:35;-4.60;99.90
11599;DHT22;5855;48.840;9.188;2023-12-04T04:04:02;-4.60;99.90
11599;DHT22;5855;48.840;9.188;2023-12-04T04:06:28;-4.50;99.90
11599;DHT22;5855;48.840;9.188;2023-12-04T04:08:57;-4.50;99.90
11599;DHT22;5855;48.840;9.188;2023-12-04T04:11:23;-4.40;99.90
11599;DHT22;5855;48.840;9.188;2023-12-04T04:13:50;-4.30;99.90
11599;DHT22;5855;48.840;9.188;2023-12-04T04:16:17;-4.30;99.90
11599;DHT22;5855;48.840;9.188;2023-12-04T04:18:44;-4.30;99.90
11599;DHT22;5855;48.840;9.188;2023-12-04T04:21:11;-4.30;99.90
11599;DHT22;5855;48.840;9.188;2023-12-04T04:23:37;-4.30;99.90
11599;DHT22;5855;48.840;9.188;2023-12-04T04:26:06;-4.30;99.90
11599;DHT22;5855;48.840;9.188;2023-12-04T04:28:33;-4.30;99.90
11599;DHT22;5855;48.840;9.188;2023-12-04T04:31:00;-4.20;99.90
11599;DHT22;5855;48.840;9.188;2023-12-04T04:33:27;-4.20;99.90
11599;DHT22;5855;48.840;9.188;2023-12-04T04:35:53;-4.20;99.90
11599;DHT22;5855;48.840;9.188;2023-12-04T04:38:20;-4.20;99.90
11599;DHT22;5855;48.840;9.188;2023-12-04T04:40:47;-4.10;99.90
11599;DHT22;5855;48.840;9.188;2023-12-04T04:43:15;-4.10;99.90
11599;DHT22;5855;48.840;9.188;2023-12-04T04:45:42;-4.00;99.90
11599;DHT22;5855;48.840;9.188;2023-12-04T04:48:09;-4.00;99.90
11599;DHT22;5855;48.840;9.188;2023-12-04T04:50:35;-4.00;99.90
11599;DHT22;5855;48.840;9.188;2023-12-04T04:53:02;-3.90;99.90
11599;DHT22;5855;48.840;9.188;2023-12-04T04:55:29;-3.90;99.90
11599;DHT22;5855;48.840;9.188;2023-12-04T04:57:57;-4.00;99.90
11599;DHT22;5855;48.840;9.188;2023-12-04T05:00:25;-4.00;99.90
11599;DHT22;5855;48.840;9.188;2023-12-04T05:02:52;-4.00;99.90
11599;DHT22;5855;48.840;9.188;2023-12-04T05:05:19;-4.10;99.90
11599;DHT22;5855;48.840;9.188;2023-12-04T05:07:45;-4.20;99.90
11599;DHT22;5855;48.840;9.188;2023-12-04T05:10:12;-4.20;99.90
11599;DHT22;5855;48.840;9.188;2023-12-04T05:12:39;-4.10;99.90
11599;DHT22;5855;48.840;9.188;2023-12-04T05:15:06;-4.10;99.90
11599;DHT22;5855;48.840;9.188;2023-12-04T05:17:35;-4.10;99.90
11599;DHT22;5855;48.840;9.188;2023-12-04T05:20:01;-4.20;99.90
11599;DHT22;5855;48.840;9.188;2023-12-04T05:22:28;-4.20;99.90
11599;DHT22;5855;48.840;9.188;2023-12-04T05:24:55;-4.20;99.90
11599;DHT22;5855;48.840;9.188;2023-12-04T05:27:23;-4.20;99.90
11599;DHT22;5855;48.840;9.188;2023-12-04T05:29:50;-4.20;99.90
11599;DHT22;5855;48.840;9.188;2023-12-04T05:32:17;-4.20;99.90
11599;DHT22;5855;48.840;9.188;2023-12-04T05:37:58;-4.20;99.90
11599;DHT22;5855;48.840;9.188;2023-12-04T05:40:25;-4.20;99.90
11599;DHT22;5855;48.840;9.188;2023-12-04T05:42:52;-4.20;99.90
11599;DHT22;5855;48.840;9.188;2023-12-04T05:45:18;-4.20;99.90
11599;DHT22;5855;48.840;9.188;2023-12-04T05:47:45;-4.10;99.90
11599;DHT22;5855;48.840;9.188;2023-12-04T05:50:14;-4.10;99.90
11599;DHT22;5855;48.840;9.188;2023-12-04T05:52:40;-4.00;99.90
11599;DHT22;5855;48.840;9.188;2023-12-04T05:55:08;-3.90;99.90
11599;DHT22;5855;48.840;9.188;2023-12-04T05:57:35;-3.90;99.90
11599;DHT22;5855;48.840;9.188;2023-12-04T06:00:02;-3.90;99.90
11599;DHT22;5855;48.840;9.188;2023-12-04T06:02:30;-3.90;99.90
11599;DHT22;5855;48.840;9.188;2023-12-04T06:04:58;-4.00;99.90
11599;DHT22;5855;48.840;9.188;2023-12-04T06:07:26;-3.90;99.90
11599;DHT22;5855;48.840;9.188;2023-12-04T06:09:53;-3.90;99.90
11599;DHT22;5855;48.840;9.188;2023-12-04T06:12:20;-3.80;99.90
11599;DHT22;5855;48.840;9.188;2023-12-04T06:14:50;-3.80;99.90
11599;DHT22;5855;48.840;9.188;2023-12-04T06:17:16;-3.90;99.90
11599;DHT22;5855;48.840;9.188;2023-12-04T06:19:45;-3.90;99.90
11599;DHT22;5855;48.840;9.188;2023-12-04T06:22:12;-3.80;99.90
11599;DHT22;5855;48.840;9.188;2023-12-04T06:24:41;-3.80;99.90
11599;DHT22;5855;48.840;9.188;2023-12-04T06:27:10;-3.80;99.90
11599;DHT22;5855;48.840;9.188;2023-12-04T06:29:39;-3.80;99.90
11599;DHT22;5855;48.840;9.188;2023-12-04T06:32:07;-3.90;99.90
11599;DHT22;5855;48.840;9.188;2023-12-04T06:34:34;-3.80;99.90
11599;DHT22;5855;48.840;9.188;2023-12-04T06:37:02;-3.80;99.90
11599;DHT22;5855;48.840;9.188;2023-12-04T06:39:32;-3.80;99.90
11599;DHT22;5855;48.840;9.188;2023-12-04T06:42:01;-3.80;99.90
11599;DHT22;5855;48.840;9.188;2023-12-04T06:44:29;-3.80;99.90
11599;DHT22;5855;48.840;9.188;2023-12-04T06:46:58;-3.80;99.90
11599;DHT22;5855;48.840;9.188;2023-12-04T06:49:28;-3.90;99.90
11599;DHT22;5855;48.840;9.188;2023-12-04T06:51:56;-3.90;99.90
11599;DHT22;5855;48.840;9.188;2023-12-04T06:54:23;-3.90;99.90
11599;DHT22;5855;48.840;9.188;2023-12-04T06:56:50;-3.80;99.90
11599;DHT22;5855;48.840;9.188;2023-12-04T06:59:18;-3.90;99.90
11599;DHT22;5855;48.840;9.188;2023-12-04T07:01:45;-3.90;99.90
11599;DHT22;5855;48.840;9.188;2023-12-04T07:04:13;-3.90;99.90
11599;DHT22;5855;48.840;9.188;2023-12-04T07:06:40;-3.80;99.90
11599;DHT22;5855;48.840;9.188;2023-12-04T07:09:07;-3.80;99.90
11599;DHT22;5855;48.840;9.188;2023-12-04T07:11:34;-3.90;99.90
11599;DHT22;5855;48.840;9.188;2023-12-04T07:14:01;-3.90;99.90
11599;DHT22;5855;48.840;9.188;2023-12-04T07:16:29;-3.90;99.90
11599;DHT22;5855;48.840;9.188;2023-12-04T07:18:57;-3.80;99.90
11599;DHT22;5855;48.840;9.188;2023-12-04T07:21:24;-3.90;99.90
11599;DHT22;5855;48.840;9.188;2023-12-04T07:23:51;-3.90;99.90
11599;DHT22;5855;48.840;9.188;2023-12-04T07:26:18;-3.80;99.90
11599;DHT22;5855;48.840;9.188;2023-12-04T07:28:45;-3.80;99.90
11599;DHT22;5855;48.840;9.188;2023-12-04T07:31:11;-3.70;99.90
11599;DHT22;5855;48.840;9.188;2023-12-04T07:33:40;-3.70;99.90
11599;DHT22;5855;48.840;9.188;2023-12-04T07:36:07;-3.70;99.90
11599;DHT22;5855;48.840;9.188;2023-12-04T07:38:34;-3.60;99.90
11599;DHT22;5855;48.840;9.188;2023-12-04T07:41:01;-3.60;99.90
11599;DHT22;5855;48.840;9.188;2023-12-04T07:43:28;-3.50;99.90
11599;DHT22;5855;48.840;9.188;2023-12-04T07:45:55;-3.50;99.90
11599;DHT22;5855;48.840;9.188;2023-12-04T07:48:23;-3.50;99.90
11599;DHT22;5855;48.840;9.188;2023-12-04T07:50:51;-3.40;99.90
11599;DHT22;5855;48.840;9.188;2023-12-04T07:53:18;-3.40;99.90
11599;DHT22;5855;48.840;9.188;2023-12-04T07:55:45;-3.50;99.90
11599;DHT22;5855;48.840;9.188;2023-12-04T07:58:15;-3.50;99.90
11599;DHT22;5855;48.840;9.188;2023-12-04T08:00:42;-3.50;99.90
11599;DHT22;5855;48.840;9.188;2023-12-04T08:03:08;-3.40;99.90
11599;DHT22;5855;48.840;9.188;2023-12-04T08:05:35;-3.20;99.90
11599;DHT22;5855;48.840;9.188;2023-12-04T08:08:04;-3.20;99.90
11599;DHT22;5855;48.840;9.188;2023-12-04T08:10:31;-3.10;99.90
11599;DHT22;5855;48.840;9.188;2023-12-04T08:12:57;-2.90;99.90
11599;DHT22;5855;48.840;9.188;2023-12-04T08:15:25;-2.80;99.90
11599;DHT22;5855;48.840;9.188;2023-12-04T08:17:52;-2.70;99.90
11599;DHT22;5855;48.840;9.188;2023-12-04T08:20:19;-2.60;99.90
11599;DHT22;5855;48.840;9.188;2023-12-04T08:22:48;-2.50;99.90
11599;DHT22;5855;48.840;9.188;2023-12-04T08:25:16;-2.70;99.90
11599;DHT22;5855;48.840;9.188;2023-12-04T08:27:43;-2.60;99.90
11599;DHT22;5855;48.840;9.188;2023-12-04T08:30:10;-2.50;99.90
11599;DHT22;5855;48.840;9.188;2023-12-04T08:32:37;-2.60;99.90
11599;DHT22;5855;48.840;9.188;2023-12-04T08:35:04;-2.50;99.90
11599;DHT22;5855;48.840;9.188;2023-12-04T08:37:31;-2.50;99.90
11599;DHT22;5855;48.840;9.188;2023-12-04T08:39:58;-2.40;99.90
11599;DHT22;5855;48.840;9.188;2023-12-04T08:42:26;-2.30;99.90
11599;DHT22;5855;48.840;9.188;2023-12-04T08:44:53;-2.30;99.90
11599;DHT22;5855;48.840;9.188;2023-12-04T08:47:20;-2.20;99.90
11599;DHT22;5855;48.840;9.188;2023-12-04T08:49:47;-2.10;99.90
11599;DHT22;5855;48.840;9.188;2023-12-04T08:52:14;-2.10;99.90
11599;DHT22;5855;48.840;9.188;2023-12-04T08:54:41;-2.00;99.90
11599;DHT22;5855;48.840;9.188;2023-12-04T08:57:08;-2.00;99.90
11599;DHT22;5855;48.840;9.188;2023-12-04T08:59:36;-2.00;99.90
11599;DHT22;5855;48.840;9.188;2023-12-04T09:02:03;-2.00;99.90
11599;DHT22;5855;48.840;9.188;2023-12-04T09:04:30;-1.90;99.90
11599;DHT22;5855;48.840;9.188;2023-12-04T09:06:57;-2.00;99.90
11599;DHT22;5855;48.840;9.188;2023-12-04T09:09:24;-2.10;99.90
11599;DHT22;5855;48.840;9.188;2023-12-04T09:11:51;-2.10;99.90
11599;DHT22;5855;48.840;9.188;2023-12-04T09:14:17;-2.00;99.90
11599;DHT22;5855;48.840;9.188;2023-12-04T09:16:46;-2.00;99.90
11599;DHT22;5855;48.840;9.188;2023-12-04T09:19:13;-2.00;99.90
11599;DHT22;5855;48.840;9.188;2023-12-04T09:21:39;-1.80;99.90
11599;DHT22;5855;48.840;9.188;2023-12-04T09:24:06;-2.00;99.90
11599;DHT22;5855;48.840;9.188;2023-12-04T09:26:33;-2.10;99.90
11599;DHT22;5855;48.840;9.188;2023-12-04T09:29:00;-2.10;99.90
11599;DHT22;5855;48.840;9.188;2023-12-04T09:31:28;-2.20;99.90
11599;DHT22;5855;48.840;9.188;2023-12-04T09:33:56;-1.90;99.90
11599;DHT22;5855;48.840;9.188;2023-12-04T09:36:23;-1.80;99.90
11599;DHT22;5855;48.840;9.188;2023-12-04T09:38:49;-1.80;99.90
11599;DHT22;5855;48.840;9.188;2023-12-04T09:41:16;-1.80;99.90
11599;DHT22;5855;48.840;9.188;2023-12-04T09:43:45;-1.80;99.90
11599;DHT22;5855;48.840;9.188;2023-12-04T09:46:13;-1.70;99.90
11599;DHT22;5855;48.840;9.188;2023-12-04T09:48:41;-1.60;99.90
11599;DHT22;5855;48.840;9.188;2023-12-04T09:51:10;-1.50;99.90
11599;DHT22;5855;48.840;9.188;2023-12-04T09:53:37;-1.60;99.90
11599;DHT22;5855;48.840;9.188;2023-12-04T09:56:05;-1.50;99.90
11599;DHT22;5855;48.840;9.188;2023-12-04T09:58:34;-1.50;99.90
11599;DHT22;5855;48.840;9.188;2023-12-04T10:01:03;-1.40;99.90
11599;DHT22;5855;48.840;9.188;2023-12-04T10:03:31;-1.40;99.90
11599;DHT22;5855;48.840;9.188;2023-12-04T10:05:59;-1.50;99.90
11599;DHT22;5855;48.840;9.188;2023-12-04T10:08:27;-1.50;99.90
11599;DHT22;5855;48.840;9.188;2023-12-04T10:10:54;-1.50;99.90
11599;DHT22;5855;48.840;9.188;2023-12-04T10:13:21;-1.50;99.90
11599;DHT22;5855;48.840;9.188;2023-12-04T10:15:49;-1.50;99.90
11599;DHT22;5855;48.840;9.188;2023-12-04T10:18:26;-1.60;99.90
11599;DHT22;5855;48.840;9.188;2023-12-04T10:20:55;-1.50;99.90
11599;DHT22;5855;48.840;9.188;2023-12-04T10:23:22;-1.50;99.90
11599;DHT22;5855;48.840;9.188;2023-12-04T10:25:50;-1.50;99.90
11599;DHT22;5855;48.840;9.188;2023-12-04T10:28:18;-1.40;99.90
11599;DHT22;5855;48.840;9.188;2023-12-04T10:30:45;-1.20;99.90
11599;DHT22;5855;48.840;9.188;2023-12-04T10:33:12;-1.10;99.90
11599;DHT22;5855;48.840;9.188;2023-12-04T10:35:40;-1.20;99.90
11599;DHT22;5855;48.840;9.188;2023-12-04T10:38:08;-1.00;99.90
11599;DHT22;5855;48.840;9.188;2023-12-04T10:40:36;-1.00;99.90
11599;DHT22;5855;48.840;9.188;2023-12-04T10:43:15;-0.80;99.90
11599;DHT22;5855;48.840;9.188;2023-12-04T10:45:43;-1.00;99.90
11599;DHT22;5855;48.840;9.188;2023-12-04T10:48:14;-0.90;99.90
11599;DHT22;5855;48.840;9.188;2023-12-04T10:50:43;-0.90;99.90
11599;DHT22;5855;48.840;9.188;2023-12-04T10:53:11;-0.90;99.90
11599;DHT22;5855;48.840;9.188;2023-12-04T10:55:38;-0.90;99.90
11599;DHT22;5855;48.840;9.188;2023-12-04T10:58:07;-0.80;99.90
11599;DHT22;5855;48.840;9.188;2023-12-04T11:00:38;-0.70;99.90
11599;DHT22;5855;48.840;9.188;2023-12-04T11:03:08;-0.60;99.90
11599;DHT22;5855;48.840;9.188;2023-12-04T11:05:37;-0.60;99.90
11599;DHT22;5855;48.840;9.188;2023-12-04T11:08:06;-0.50;99.90
11599;DHT22;5855;48.840;9.188;2023-12-04T11:10:36;-0.50;99.90
11599;DHT22;5855;48.840;9.188;2023-12-04T11:13:10;-0.50;99.90
11599;DHT22;5855;48.840;9.188;2023-12-04T11:15:42;-0.50;99.90
11599;DHT22;5855;48.840;9.188;2023-12-04T11:18:12;-0.50;99.90
11599;DHT22;5855;48.840;9.188;2023-12-04T11:20:47;-0.50;99.90
11599;DHT22;5855;48.840;9.188;2023-12-04T11:23:14;-0.50;99.90
11599;DHT22;5855;48.840;9.188;2023-12-04T11:25:42;-0.30;99.90
11599;DHT22;5855;48.840;9.188;2023-12-04T11:28:10;-0.30;99.90
11599;DHT22;5855;48.840;9.188;2023-12-04T11:30:39;-0.30;99.90
11599;DHT22;5855;48.840;9.188;2023-12-04T11:33:06;-0.20;99.90
11599;DHT22;5855;48.840;9.188;2023-12-04T11:35:33;-0.10;99.90
11599;DHT22;5855;48.840;9.188;2023-12-04T11:38:00;-0.20;99.90
11599;DHT22;5855;48.840;9.188;2023-12-04T11:40:27;-0.20;99.90
11599;DHT22;5855;48.840;9.188;2023-12-04T11:42:54;-0.20;99.90
11599;DHT22;5855;48.840;9.188;2023-12-04T11:45:21;-0.30;99.90
11599;DHT22;5855;48.840;9.188;2023-12-04T11:47:54;-0.20;99.90
11599;DHT22;5855;48.840;9.188;2023-12-04T11:50:21;-0.10;99.90
11599;DHT22;5855;48.840;9.188;2023-12-04T11:52:48;-0.10;99.90
11599;DHT22;5855;48.840;9.188;2023-12-04T11:55:19;-0.10;99.90
11599;DHT22;5855;48.840;9.188;2023-12-04T11:57:49;-0.20;99.90
11599;DHT22;5855;48.840;9.188;2023-12-04T12:00:20;-0.20;99.90
11599;DHT22;5855;48.840;9.188;2023-12-04T12:03:07;-0.20;99.90
11599;DHT22;5855;48.840;9.188;2023-12-04T12:05:36;-0.30;99.90
11599;DHT22;5855;48.840;9.188;2023-12-04T12:08:05;-0.40;99.90
11599;DHT22;5855;48.840;9.188;2023-12-04T12:10:33;-0.50;99.90
11599;DHT22;5855;48.840;9.188;2023-12-04T12:13:00;-0.50;99.90
11599;DHT22;5855;48.840;9.188;2023-12-04T12:15:28;-0.50;99.90
11599;DHT22;5855;48.840;9.188;2023-12-04T12:17:55;-0.50;99.90
11599;DHT22;5855;48.840;9.188;2023-12-04T12:20:23;-0.40;99.90
11599;DHT22;5855;48.840;9.188;2023-12-04T12:22:50;-0.40;99.90
11599;DHT22;5855;48.840;9.188;2023-12-04T12:25:18;-0.20;99.90
11599;DHT22;5855;48.840;9.188;2023-12-04T12:27:45;-0.20;99.90
11599;DHT22;5855;48.840;9.188;2023-12-04T12:30:12;-0.10;99.90
11599;DHT22;5855;48.840;9.188;2023-12-04T12:32:39;-0.20;99.90
11599;DHT22;5855;48.840;9.188;2023-12-04T12:35:08;-0.10;99.90
11599;DHT22;5855;48.840;9.188;2023-12-04T12:37:38;0.00;99.90
11599;DHT22;5855;48.840;9.188;2023-12-04T12:40:06;0.00;99.90
11599;DHT22;5855;48.840;9.188;2023-12-04T12:42:35;0.10;99.90
11599;DHT22;5855;48.840;9.188;2023-12-04T12:45:02;0.10;99.90
11599;DHT22;5855;48.840;9.188;2023-12-04T12:47:30;0.20;99.90
11599;DHT22;5855;48.840;9.188;2023-12-04T12:49:57;0.20;99.90
11599;DHT22;5855;48.840;9.188;2023-12-04T12:52:26;0.20;99.90
11599;DHT22;5855;48.840;9.188;2023-12-04T12:54:54;0.20;99.90
11599;DHT22;5855;48.840;9.188;2023-12-04T12:57:21;0.10;99.90
11599;DHT22;5855;48.840;9.188;2023-12-04T12:59:47;0.00;99.90
11599;DHT22;5855;48.840;9.188;2023-12-04T13:02:23;0.10;99.90
11599;DHT22;5855;48.840;9.188;2023-12-04T13:04:50;0.10;99.90
11599;DHT22;5855;48.840;9.188;2023-12-04T13:07:17;0.20;99.90
11599;DHT22;5855;48.840;9.188;2023-12-04T13:09:44;0.40;99.90
11599;DHT22;5855;48.840;9.188;2023-12-04T13:12:13;0.30;99.90
11599;DHT22;5855;48.840;9.188;2023-12-04T13:14:40;0.40;99.90
11599;DHT22;5855;48.840;9.188;2023-12-04T13:17:07;0.50;99.90
11599;DHT22;5855;48.840;9.188;2023-12-04T13:19:34;0.40;99.90
11599;DHT22;5855;48.840;9.188;2023-12-04T13:22:01;0.30;99.90
11599;DHT22;5855;48.840;9.188;2023-12-04T13:24:29;0.20;99.90
11599;DHT22;5855;48.840;9.188;2023-12-04T13:26:56;0.20;99.90
11599;DHT22;5855;48.840;9.188;2023-12-04T13:29:24;0.30;99.90
11599;DHT22;5855;48.840;9.188;2023-12-04T13:31:51;0.30;99.90
11599;DHT22;5855;48.840;9.188;2023-12-04T13:34:19;0.10;99.90
11599;DHT22;5855;48.840;9.188;2023-12-04T13:36:47;0.30;99.90
11599;DHT22;5855;48.840;9.188;2023-12-04T13:39:15;0.20;99.90
11599;DHT22;5855;48.840;9.188;2023-12-04T13:41:52;0.20;99.90
11599;DHT22;5855;48.840;9.188;2023-12-04T13:44:39;0.10;99.90
11599;DHT22;5855;48.840;9.188;2023-12-04T13:47:07;0.00;99.90
11599;DHT22;5855;48.840;9.188;2023-12-04T13:49:34;0.00;99.90
11599;DHT22;5855;48.840;9.188;2023-12-04T13:52:01;0.10;99.90
11599;DHT22;5855;48.840;9.188;2023-12-04T13:54:32;0.00;99.90
11599;DHT22;5855;48.840;9.188;2023-12-04T13:57:09;0.10;99.90
11599;DHT22;5855;48.840;9.188;2023-12-04T13:59:45;-0.10;99.90
11599;DHT22;5855;48.840;9.188;2023-12-04T14:02:12;0.10;99.90
11599;DHT22;5855;48.840;9.188;2023-12-04T14:04:40;0.00;99.90
11599;DHT22;5855;48.840;9.188;2023-12-04T14:07:09;0.00;99.90
11599;DHT22;5855;48.840;9.188;2023-12-04T14:09:37;-0.10;99.90
11599;DHT22;5855;48.840;9.188;2023-12-04T14:12:06;-0.10;99.90
11599;DHT22;5855;48.840;9.188;2023-12-04T14:14:33;0.00;99.90
11599;DHT22;5855;48.840;9.188;2023-12-04T14:17:01;-0.20;99.90
11599;DHT22;5855;48.840;9.188;2023-12-04T14:19:30;-0.20;99.90
11599;DHT22;5855;48.840;9.188;2023-12-04T14:21:59;-0.20;99.90
11599;DHT22;5855;48.840;9.188;2023-12-04T14:24:33;-0.20;99.90
11599;DHT22;5855;48.840;9.188;2023-12-04T14:27:01;-0.30;99.90
11599;DHT22;5855;48.840;9.188;2023-12-04T14:29:28;-0.20;99.90
11599;DHT22;5855;48.840;9.188;2023-12-04T14:31:55;-0.30;99.90
11599;DHT22;5855;48.840;9.188;2023-12-04T14:34:23;-0.30;99.90
11599;DHT22;5855;48.840;9.188;2023-12-04T14:36:55;-0.30;99.90
11599;DHT22;5855;48.840;9.188;2023-12-04T14:39:21;-0.30;99.90
11599;DHT22;5855;48.840;9.188;2023-12-04T14:41:49;-0.30;99.90
11599;DHT22;5855;48.840;9.188;2023-12-04T14:44:16;-0.40;99.90
11599;DHT22;5855;48.840;9.188;2023-12-04T14:46:43;-0.40;99.90
11599;DHT22;5855;48.840;9.188;2023-12-04T14:49:11;-0.30;99.90
11599;DHT22;5855;48.840;9.188;2023-12-04T14:51:39;-0.30;99.90
11599;DHT22;5855;48.840;9.188;2023-12-04T14:54:06;-0.30;99.90
11599;DHT22;5855;48.840;9.188;2023-12-04T14:56:47;-0.30;99.90
11599;DHT22;5855;48.840;9.188;2023-12-04T14:59:32;-0.30;99.90
11599;DHT22;5855;48.840;9.188;2023-12-04T15:02:37;-0.40;99.90
11599;DHT22;5855;48.840;9.188;2023-12-04T15:05:44;-0.30;99.90
11599;DHT22;5855;48.840;9.188;2023-12-04T15:08:40;-0.20;99.90
11599;DHT22;5855;48.840;9.188;2023-12-04T15:11:24;-0.20;99.90
11599;DHT22;5855;48.840;9.188;2023-12-04T15:14:20;-0.20;99.90
11599;DHT22;5855;48.840;9.188;2023-12-04T15:16:57;-0.20;99.90
11599;DHT22;5855;48.840;9.188;2023-12-04T15:19:39;-0.10;99.90
11599;DHT22;5855;48.840;9.188;2023-12-04T15:22:22;-0.10;99.90
11599;DHT22;5855;48.840;9.188;2023-12-04T15:24:50;0.00;99.90
11599;DHT22;5855;48.840;9.188;2023-12-04T15:27:17;0.00;99.90
11599;DHT22;5855;48.840;9.188;2023-12-04T15:29:43;0.00;99.90
11599;DHT22;5855;48.840;9.188;2023-12-04T15:32:10;0.10;99.90
11599;DHT22;5855;48.840;9.188;2023-12-04T15:34:36;0.10;99.90
11599;DHT22;5855;48.840;9.188;2023-12-04T15:37:03;0.10;99.90
11599;DHT22;5855;48.840;9.188;2023-12-04T15:39:29;0.00;99.90
11599;DHT22;5855;48.840;9.188;2023-12-04T15:41:57;0.00;99.90
11599;DHT22;5855;48.840;9.188;2023-12-04T15:44:23;0.00;99.90
11599;DHT22;5855;48.840;9.188;2023-12-04T15:46:50;0.00;99.90
11599;DHT22;5855;48.840;9.188;2023-12-04T15:49:16;0.00;99.90
11599;DHT22;5855;48.840;9.188;2023-12-04T15:51:43;0.00;99.90
11599;DHT22;5855;48.840;9.188;2023-12-04T15:54:09;-0.10;99.90
11599;DHT22;5855;48.840;9.188;2023-12-04T15:56:36;0.00;99.90